Time;durP1;ratioP1;P1;durP2;ratioP2;P2;SDS_P1;SDS_P2;PMS_P1;PMS_P2;Temp;Humidity;BMP_temperature;BMP_pressure;BME280_temperature;BME280_humidity;BME280_pressure;Samples;Min_cycle;Max_cycle;Signal;HPM_P1;HPM_P2
2023/05/08 00:00:44;;;;;;;;;;;12.30;55.00;;;;;;5088976;28;19920;-70
2023/05/08 00:03:11;;;;;;;;;;;12.30;53.00;;;;;;5089225;28;20294;-71
2023/05/08 00:05:38;;;;;;;;;;;12.30;54.10;;;;;;5089784;28;19912;-71
2023/05/08 00:08:04;;;;;;;;;;;12.40;53.50;;;;;;5071030;28;20385;-74
2023/05/08 00:10:31;;;;;;;;;;;12.50;53.40;;;;;;5089251;28;19912;-71
2023/05/08 00:12:58;;;;;;;;;;;12.50;53.10;;;;;;5088964;28;20394;-72
2023/05/08 00:15:25;;;;;;;;;;;12.50;53.20;;;;;;5090437;28;19920;-76
2023/05/08 00:17:51;;;;;;;;;;;12.50;53.40;;;;;;5091315;28;19941;-74
2023/05/08 00:20:18;;;;;;;;;;;12.60;54.20;;;;;;5109633;28;19947;-71
2023/05/08 00:22:45;;;;;;;;;;;12.70;54.00;;;;;;5109484;28;19959;-70
2023/05/08 00:25:11;;;;;;;;;;;12.80;53.80;;;;;;5109505;28;20283;-71
2023/05/08 00:27:38;;;;;;;;;;;12.70;54.40;;;;;;5074209;28;20068;-72
2023/05/08 00:30:06;;;;;;;;;;;12.70;54.30;;;;;;5069103;28;19982;-72
2023/05/08 00:32:33;;;;;;;;;;;12.70;53.50;;;;;;5072618;28;20356;-72
2023/05/08 00:34:59;;;;;;;;;;;12.70;53.70;;;;;;5089494;28;20417;-72
2023/05/08 00:37:26;;;;;;;;;;;12.80;53.50;;;;;;5088785;28;19916;-72
2023/05/08 00:39:53;;;;;;;;;;;12.90;54.50;;;;;;5088622;28;20026;-73
2023/05/08 00:42:19;;;;;;;;;;;12.90;53.10;;;;;;5094127;22;20015;-68
2023/05/08 00:44:46;;;;;;;;;;;13.00;53.00;;;;;;5079229;28;20426;-66
2023/05/08 00:47:13;;;;;;;;;;;13.00;53.70;;;;;;5087828;28;19916;-66
2023/05/08 00:49:40;;;;;;;;;;;13.10;53.60;;;;;;5071616;28;19920;-67
2023/05/08 00:52:09;;;;;;;;;;;13.20;52.80;;;;;;5034447;28;20370;-67
2023/05/08 00:54:36;;;;;;;;;;;13.20;52.80;;;;;;5069078;28;19916;-66
2023/05/08 00:57:05;;;;;;;;;;;13.20;53.10;;;;;;5049214;28;19924;-66
2023/05/08 00:59:32;;;;;;;;;;;13.20;54.10;;;;;;5068962;28;19912;-69
2023/05/08 01:01:59;;;;;;;;;;;13.30;54.50;;;;;;5051026;28;20003;-67
2023/05/08 01:04:26;;;;;;;;;;;13.30;52.80;;;;;;5068028;28;19916;-66
2023/05/08 01:06:52;;;;;;;;;;;13.30;52.50;;;;;;5075175;28;19912;-66
2023/05/08 01:09:19;;;;;;;;;;;13.40;52.90;;;;;;5069614;28;21075;-66
2023/05/08 01:11:55;;;;;;;;;;;13.40;53.30;;;;;;5092539;28;19916;-67
2023/05/08 01:14:29;;;;;;;;;;;13.40;52.80;;;;;;5081205;28;20378;-67
2023/05/08 01:16:58;;;;;;;;;;;13.50;52.40;;;;;;5069452;28;20348;-64
2023/05/08 01:19:40;;;;;;;;;;;13.60;52.20;;;;;;5071894;28;19946;-65
2023/05/08 01:22:07;;;;;;;;;;;13.70;52.50;;;;;;5086092;28;19997;-67
2023/05/08 01:24:52;;;;;;;;;;;13.70;52.30;;;;;;5070950;28;19935;-66
2023/05/08 01:27:33;;;;;;;;;;;13.70;52.00;;;;;;5069965;28;19915;-67
2023/05/08 01:30:09;;;;;;;;;;;13.70;52.00;;;;;;5067994;28;20340;-67
2023/05/08 01:32:37;;;;;;;;;;;13.70;52.10;;;;;;5065266;28;20392;-67
2023/05/08 01:35:17;;;;;;;;;;;13.70;52.30;;;;;;5059943;28;20535;-67
2023/05/08 01:37:46;;;;;;;;;;;13.70;51.90;;;;;;5058694;28;20430;-67
2023/05/08 01:40:32;;;;;;;;;;;13.80;51.80;;;;;;5068126;28;19912;-67
2023/05/08 01:43:19;;;;;;;;;;;13.80;52.00;;;;;;5063207;28;19947;-67
2023/05/08 01:45:46;;;;;;;;;;;13.80;52.70;;;;;;5049580;28;19912;-67
2023/05/08 01:48:16;;;;;;;;;;;13.80;51.70;;;;;;5074347;28;19912;-67
2023/05/08 01:50:47;;;;;;;;;;;13.80;52.90;;;;;;5069111;28;19919;-67
2023/05/08 01:53:17;;;;;;;;;;;13.90;52.40;;;;;;5076002;28;20369;-67
2023/05/08 01:55:44;;;;;;;;;;;14.00;51.90;;;;;;5085487;28;20290;-67
2023/05/08 01:58:11;;;;;;;;;;;14.00;52.80;;;;;;5072847;28;19925;-66
2023/05/08 02:00:38;;;;;;;;;;;14.10;51.20;;;;;;5074121;28;19999;-67
2023/05/08 02:03:05;;;;;;;;;;;14.20;50.70;;;;;;5074208;28;19987;-67
2023/05/08 02:05:32;;;;;;;;;;;14.20;50.40;;;;;;5072936;28;20268;-67
2023/05/08 02:07:58;;;;;;;;;;;14.20;50.00;;;;;;5074102;28;19909;-67
2023/05/08 02:10:25;;;;;;;;;;;14.20;50.50;;;;;;5074080;28;20421;-67
2023/05/08 02:12:52;;;;;;;;;;;14.20;50.80;;;;;;5056180;28;19908;-67
2023/05/08 02:15:19;;;;;;;;;;;14.20;51.30;;;;;;5072512;28;19970;-67
2023/05/08 02:17:46;;;;;;;;;;;14.10;51.60;;;;;;5072757;28;19916;-67
2023/05/08 02:20:13;;;;;;;;;;;14.10;52.30;;;;;;5073206;28;20015;-67
2023/05/08 02:22:43;;;;;;;;;;;14.10;52.30;;;;;;5071999;28;20004;-67
2023/05/08 02:25:13;;;;;;;;;;;14.10;52.90;;;;;;5072321;28;19916;-67
2023/05/08 02:27:45;;;;;;;;;;;14.10;52.80;;;;;;5072587;28;19909;-67
2023/05/08 02:30:13;;;;;;;;;;;14.10;52.50;;;;;;5072700;28;19909;-67
2023/05/08 02:32:43;;;;;;;;;;;14.20;52.40;;;;;;5055344;28;19920;-67
2023/05/08 02:35:16;;;;;;;;;;;14.20;51.90;;;;;;5072181;28;19978;-67
2023/05/08 02:37:43;;;;;;;;;;;14.30;50.50;;;;;;5073585;28;20385;-67
2023/05/08 02:40:10;;;;;;;;;;;14.50;50.90;;;;;;5073665;28;20362;-67
2023/05/08 02:42:37;;;;;;;;;;;14.50;50.70;;;;;;5055397;28;20011;-67
2023/05/08 02:45:04;;;;;;;;;;;14.50;49.10;;;;;;5073197;28;20385;-67
2023/05/08 02:47:37;;;;;;;;;;;14.40;49.90;;;;;;5073376;28;19909;-67
2023/05/08 02:50:09;;;;;;;;;;;14.40;50.10;;;;;;5073366;28;19978;-66
2023/05/08 02:52:37;;;;;;;;;;;14.40;50.10;;;;;;5073577;28;19908;-67
2023/05/08 02:55:06;;;;;;;;;;;14.50;48.70;;;;;;5055635;28;20282;-67
2023/05/08 02:57:33;;;;;;;;;;;14.40;49.00;;;;;;5055497;28;19923;-68
2023/05/08 03:00:03;;;;;;;;;;;14.50;49.20;;;;;;5072192;28;19917;-67
2023/05/08 03:02:33;;;;;;;;;;;14.40;48.70;;;;;;5073403;28;19913;-67
2023/05/08 03:05:02;;;;;;;;;;;14.40;49.50;;;;;;5073370;28;20375;-67
2023/05/08 03:07:28;;;;;;;;;;;14.40;49.30;;;;;;5055050;28;19909;-67
2023/05/08 03:09:58;;;;;;;;;;;14.30;50.20;;;;;;5070057;28;20385;-67
2023/05/08 03:12:26;;;;;;;;;;;14.30;48.80;;;;;;5090498;28;19908;-67
2023/05/08 03:15:13;;;;;;;;;;;14.30;48.80;;;;;;5073931;28;20416;-67
2023/05/08 03:17:39;;;;;;;;;;;14.40;49.10;;;;;;5038883;28;19920;-68
2023/05/08 03:20:07;;;;;;;;;;;14.40;49.00;;;;;;5070214;28;19909;-68
2023/05/08 03:22:34;;;;;;;;;;;14.40;48.80;;;;;;5061684;28;19935;-68
2023/05/08 03:25:01;;;;;;;;;;;14.50;49.30;;;;;;5069125;28;19909;-68
2023/05/08 03:27:29;;;;;;;;;;;14.50;47.80;;;;;;5072085;28;19999;-68
2023/05/08 03:29:56;;;;;;;;;;;14.60;50.10;;;;;;5071382;28;19934;-67
2023/05/08 03:32:23;;;;;;;;;;;14.60;49.00;;;;;;5067697;28;20286;-68
2023/05/08 03:34:50;;;;;;;;;;;14.70;46.10;;;;;;5069208;28;19958;-68
2023/05/08 03:37:17;;;;;;;;;;;14.80;48.00;;;;;;5071321;28;19959;-68
2023/05/08 03:39:44;;;;;;;;;;;14.70;47.00;;;;;;5082462;28;19964;-67
2023/05/08 03:42:19;;;;;;;;;;;14.80;47.60;;;;;;5080181;28;19920;-68
2023/05/08 03:44:48;;;;;;;;;;;14.80;47.00;;;;;;5067550;28;19999;-68
2023/05/08 03:47:15;;;;;;;;;;;14.80;46.10;;;;;;5060141;28;19952;-68
2023/05/08 03:49:41;;;;;;;;;;;14.80;45.90;;;;;;5070888;28;19923;-68
2023/05/08 03:52:08;;;;;;;;;;;14.90;44.00;;;;;;5069016;28;20332;-68
2023/05/08 03:54:35;;;;;;;;;;;14.90;45.60;;;;;;5071053;28;19962;-67
2023/05/08 03:57:01;;;;;;;;;;;14.90;44.30;;;;;;5070688;28;20032;-67
2023/05/08 03:59:48;;;;;;;;;;;14.90;45.70;;;;;;5068892;28;20308;-67
2023/05/08 04:02:21;;;;;;;;;;;14.90;45.10;;;;;;5060140;28;19912;-67
2023/05/08 04:04:49;;;;;;;;;;;15.00;44.30;;;;;;5071205;28;20371;-65
2023/05/08 04:07:31;;;;;;;;;;;14.90;46.30;;;;;;5059771;28;20374;-67
2023/05/08 04:10:04;;;;;;;;;;;14.90;44.30;;;;;;5048113;28;20007;-67
2023/05/08 04:12:44;;;;;;;;;;;14.80;45.50;;;;;;5069646;28;19934;-67
2023/05/08 04:15:13;;;;;;;;;;;14.80;46.20;;;;;;5052098;28;19909;-67
2023/05/08 04:17:45;;;;;;;;;;;14.80;45.00;;;;;;5034265;28;19927;-66
2023/05/08 04:20:13;;;;;;;;;;;14.80;46.40;;;;;;5052349;28;19961;-67
2023/05/08 04:22:40;;;;;;;;;;;14.80;43.80;;;;;;5050907;28;20004;-66
2023/05/08 04:25:07;;;;;;;;;;;14.80;44.20;;;;;;5050554;28;19954;-67
2023/05/08 04:27:34;;;;;;;;;;;14.80;44.70;;;;;;5050706;28;19909;-67
2023/05/08 04:30:01;;;;;;;;;;;14.80;45.30;;;;;;5052027;28;19963;-67
2023/05/08 04:32:28;;;;;;;;;;;14.80;43.50;;;;;;5050674;28;19909;-67
2023/05/08 04:34:55;;;;;;;;;;;14.80;45.60;;;;;;5051715;28;20378;-67
2023/05/08 04:37:30;;;;;;;;;;;14.90;43.50;;;;;;5051835;28;19917;-66
2023/05/08 04:39:57;;;;;;;;;;;15.00;42.40;;;;;;5052358;28;19916;-69
2023/05/08 04:42:25;;;;;;;;;;;14.90;42.90;;;;;;5050832;28;20009;-68
2023/05/08 04:44:52;;;;;;;;;;;14.90;42.70;;;;;;5052220;28;19913;-67
2023/05/08 04:47:18;;;;;;;;;;;14.90;41.80;;;;;;5055650;28;19916;-67
2023/05/08 04:49:45;;;;;;;;;;;14.80;42.50;;;;;;5056041;28;20051;-67
2023/05/08 04:52:12;;;;;;;;;;;14.80;43.80;;;;;;5055579;28;20426;-67
2023/05/08 04:57:06;;;;;;;;;;;14.70;46.10;;;;;;5075250;28;19924;-67
2023/05/08 04:59:32;;;;;;;;;;;14.80;43.80;;;;;;5095917;28;19961;-67
2023/05/08 05:02:02;;;;;;;;;;;14.80;43.00;;;;;;5094492;28;19915;-67
2023/05/08 05:04:29;;;;;;;;;;;14.70;42.90;;;;;;5095737;28;20331;-67
2023/05/08 05:06:55;;;;;;;;;;;14.70;43.00;;;;;;5094824;28;19912;-67
2023/05/08 05:09:24;;;;;;;;;;;14.70;43.10;;;;;;5094736;28;20026;-67
2023/05/08 05:11:51;;;;;;;;;;;14.70;42.30;;;;;;5094202;28;19952;-66
2023/05/08 05:14:17;;;;;;;;;;;14.70;42.10;;;;;;5094616;28;19998;-67
2023/05/08 05:16:44;;;;;;;;;;;14.70;43.90;;;;;;5095482;28;19912;-67
2023/05/08 05:19:11;;;;;;;;;;;14.70;45.00;;;;;;5095257;28;19915;-67
2023/05/08 05:21:37;;;;;;;;;;;14.70;43.40;;;;;;5093936;28;19947;-66
2023/05/08 05:24:05;;;;;;;;;;;14.70;43.50;;;;;;5095467;28;20276;-66
2023/05/08 05:26:31;;;;;;;;;;;14.70;43.40;;;;;;5093989;28;19966;-67
2023/05/08 05:28:58;;;;;;;;;;;14.70;43.20;;;;;;5093974;28;19915;-67
2023/05/08 05:31:25;;;;;;;;;;;14.70;42.10;;;;;;5095437;28;19909;-67
2023/05/08 05:33:52;;;;;;;;;;;14.70;42.50;;;;;;5095057;28;20289;-67
2023/05/08 05:36:18;;;;;;;;;;;14.70;43.60;;;;;;5093555;28;19934;-67
2023/05/08 05:38:45;;;;;;;;;;;14.80;40.40;;;;;;5095191;28;19919;-67
2023/05/08 05:41:12;;;;;;;;;;;14.80;43.50;;;;;;5094842;28;19950;-66
2023/05/08 05:43:39;;;;;;;;;;;14.70;42.40;;;;;;5094911;28;20374;-67
2023/05/08 05:46:06;;;;;;;;;;;14.70;43.40;;;;;;5094840;28;19908;-68
2023/05/08 05:48:32;;;;;;;;;;;14.70;42.10;;;;;;5094571;28;19908;-67
2023/05/08 05:50:59;;;;;;;;;;;14.70;43.80;;;;;;5095064;28;19930;-67
2023/05/08 05:53:26;;;;;;;;;;;14.70;43.00;;;;;;5095030;28;20255;-66
2023/05/08 05:55:53;;;;;;;;;;;14.70;44.50;;;;;;5094657;28;19916;-66
2023/05/08 05:58:19;;;;;;;;;;;14.70;44.40;;;;;;5093524;28;19931;-67
2023/05/08 06:00:47;;;;;;;;;;;14.70;43.10;;;;;;5094426;28;19908;-67
2023/05/08 06:03:13;;;;;;;;;;;14.70;43.70;;;;;;5094396;28;19915;-67
2023/05/08 06:05:40;;;;;;;;;;;14.70;42.70;;;;;;5094661;28;19908;-67
2023/05/08 06:08:07;;;;;;;;;;;14.70;43.30;;;;;;5094332;28;19969;-67
2023/05/08 06:10:34;;;;;;;;;;;14.70;43.80;;;;;;5093153;28;19950;-66
2023/05/08 06:13:01;;;;;;;;;;;14.70;43.00;;;;;;5094232;28;19987;-66
2023/05/08 06:15:27;;;;;;;;;;;14.70;42.40;;;;;;5093875;28;19934;-66
2023/05/08 06:17:54;;;;;;;;;;;14.70;44.20;;;;;;5080828;28;20015;-68
2023/05/08 06:20:21;;;;;;;;;;;14.70;43.60;;;;;;5091451;28;19920;-68
2023/05/08 06:22:48;;;;;;;;;;;14.70;44.50;;;;;;5091839;28;19920;-67
2023/05/08 06:25:15;;;;;;;;;;;14.70;42.90;;;;;;5091349;28;19912;-67
2023/05/08 06:27:42;;;;;;;;;;;14.70;44.60;;;;;;5091030;28;20336;-67
2023/05/08 06:30:09;;;;;;;;;;;14.70;45.50;;;;;;5090901;28;19920;-67
2023/05/08 06:32:36;;;;;;;;;;;14.70;44.90;;;;;;5091241;28;19951;-68
2023/05/08 06:35:03;;;;;;;;;;;14.70;45.30;;;;;;5090933;28;19965;-66
2023/05/08 06:37:29;;;;;;;;;;;14.80;44.20;;;;;;5090905;28;19920;-70
2023/05/08 06:39:56;;;;;;;;;;;14.80;44.60;;;;;;5089181;28;20389;-67
2023/05/08 06:42:23;;;;;;;;;;;14.80;42.80;;;;;;5091015;28;19916;-67
2023/05/08 06:44:52;;;;;;;;;;;14.80;44.00;;;;;;5090900;28;19945;-67
2023/05/08 06:47:19;;;;;;;;;;;14.90;44.80;;;;;;5090831;28;19927;-67
2023/05/08 06:49:46;;;;;;;;;;;14.90;43.70;;;;;;5091080;28;20007;-66
2023/05/08 06:52:12;;;;;;;;;;;15.00;44.10;;;;;;5091414;28;20285;-66
2023/05/08 06:54:40;;;;;;;;;;;15.00;45.20;;;;;;5090263;28;19962;-67
2023/05/08 06:57:07;;;;;;;;;;;15.00;45.00;;;;;;5090225;28;19924;-67
2023/05/08 06:59:34;;;;;;;;;;;14.90;45.00;;;;;;5091066;28;19915;-67
2023/05/08 07:02:01;;;;;;;;;;;14.90;45.20;;;;;;5090524;28;19912;-67
2023/05/08 07:04:27;;;;;;;;;;;14.90;46.30;;;;;;5088052;28;19930;-66
2023/05/08 07:06:54;;;;;;;;;;;14.90;45.30;;;;;;5089071;28;19998;-67
2023/05/08 07:09:21;;;;;;;;;;;14.90;46.20;;;;;;5089543;28;19919;-66
2023/05/08 07:11:47;;;;;;;;;;;14.90;45.80;;;;;;5090281;28;19926;-66
2023/05/08 07:14:14;;;;;;;;;;;15.00;44.10;;;;;;5090049;28;20008;-67
2023/05/08 07:16:41;;;;;;;;;;;15.00;44.50;;;;;;5089323;28;19970;-65
2023/05/08 07:19:08;;;;;;;;;;;15.00;44.20;;;;;;5087441;28;20364;-67
2023/05/08 07:21:34;;;;;;;;;;;14.90;43.70;;;;;;5090712;28;20005;-66
2023/05/08 07:24:01;;;;;;;;;;;14.90;42.30;;;;;;5090809;28;19908;-66
2023/05/08 07:26:28;;;;;;;;;;;14.90;43.30;;;;;;5090364;28;19995;-66
2023/05/08 07:28:55;;;;;;;;;;;14.90;43.20;;;;;;5087472;28;19931;-66
2023/05/08 07:31:22;;;;;;;;;;;14.90;43.30;;;;;;5088690;28;19912;-66
2023/05/08 07:33:49;;;;;;;;;;;14.90;43.40;;;;;;5086373;28;19916;-66
2023/05/08 07:36:16;;;;;;;;;;;14.80;44.40;;;;;;5089846;28;19924;-66
2023/05/08 07:38:42;;;;;;;;;;;14.80;44.60;;;;;;5098840;27;19917;-64
2023/05/08 07:41:09;;;;;;;;;;;14.70;44.90;;;;;;5084720;28;20412;-66
2023/05/08 07:43:36;;;;;;;;;;;14.70;46.20;;;;;;5087428;28;20390;-66
2023/05/08 07:46:03;;;;;;;;;;;14.70;46.00;;;;;;5083711;28;20268;-66
2023/05/08 07:48:29;;;;;;;;;;;14.70;46.80;;;;;;5083840;28;19931;-65
2023/05/08 07:50:56;;;;;;;;;;;14.60;46.80;;;;;;5084776;28;20298;-65
2023/05/08 07:53:23;;;;;;;;;;;14.60;47.50;;;;;;5081448;28;19985;-65
2023/05/08 07:55:50;;;;;;;;;;;14.60;48.20;;;;;;5088299;28;19981;-66
2023/05/08 07:58:16;;;;;;;;;;;14.60;48.00;;;;;;5087289;28;20061;-64
2023/05/08 08:00:43;;;;;;;;;;;14.50;48.40;;;;;;5085992;28;20384;-66
2023/05/08 08:03:10;;;;;;;;;;;14.50;48.60;;;;;;5084660;28;19912;-66
2023/05/08 08:05:37;;;;;;;;;;;14.50;48.70;;;;;;5085063;28;19916;-66
2023/05/08 08:08:04;;;;;;;;;;;14.40;48.80;;;;;;5074897;28;19916;-67
2023/05/08 08:10:31;;;;;;;;;;;14.40;48.90;;;;;;5081441;28;19935;-67
2023/05/08 08:12:57;;;;;;;;;;;14.40;49.10;;;;;;5088417;28;19923;-66
2023/05/08 08:15:24;;;;;;;;;;;14.40;49.10;;;;;;5087830;28;19916;-66
2023/05/08 08:17:51;;;;;;;;;;;14.30;49.50;;;;;;5073347;28;20377;-66
2023/05/08 08:20:18;;;;;;;;;;;14.30;49.70;;;;;;5081821;28;19916;-67
2023/05/08 08:22:44;;;;;;;;;;;14.30;50.20;;;;;;5080924;28;19913;-65
2023/05/08 08:25:11;;;;;;;;;;;14.20;49.50;;;;;;5079089;28;19942;-64
2023/05/08 08:27:38;;;;;;;;;;;14.30;49.50;;;;;;5084813;28;19998;-65
2023/05/08 08:30:06;;;;;;;;;;;14.20;49.80;;;;;;5072480;28;19927;-66
2023/05/08 08:32:32;;;;;;;;;;;14.20;50.20;;;;;;5086623;28;19916;-66
2023/05/08 08:34:59;;;;;;;;;;;14.20;50.70;;;;;;5088165;28;19919;-66
2023/05/08 08:37:26;;;;;;;;;;;14.10;50.90;;;;;;5087350;28;20270;-67
2023/05/08 08:39:53;;;;;;;;;;;14.10;50.70;;;;;;5068042;28;19917;-67
2023/05/08 11:07:55;;;;;;;;;;;13.40;56.10;;;;;;5067692;28;20026;-63
2023/05/08 11:10:22;;;;;;;;;;;13.30;56.40;;;;;;5058328;28;19917;-64
2023/05/08 11:12:49;;;;;;;;;;;13.30;56.60;;;;;;5069930;28;19947;-65
2023/05/08 11:15:16;;;;;;;;;;;13.30;56.60;;;;;;5068631;28;19999;-65
2023/05/08 11:17:45;;;;;;;;;;;13.30;57.00;;;;;;5066345;28;20057;-65
2023/05/08 11:20:12;;;;;;;;;;;13.30;57.10;;;;;;5051871;28;19935;-65
2023/05/08 11:22:39;;;;;;;;;;;13.30;56.70;;;;;;5064739;28;19920;-63
2023/05/08 11:25:07;;;;;;;;;;;13.20;56.40;;;;;;5081769;28;20375;-67
2023/05/08 11:27:41;;;;;;;;;;;13.20;56.50;;;;;;5056454;28;20007;-68
2023/05/08 11:30:21;;;;;;;;;;;13.20;56.40;;;;;;5062209;28;20011;-66
2023/05/08 11:33:03;;;;;;;;;;;13.20;56.40;;;;;;5061068;28;19908;-66
2023/05/08 11:35:46;;;;;;;;;;;13.20;56.70;;;;;;5067973;28;20052;-65
2023/05/08 11:38:16;;;;;;;;;;;13.20;56.70;;;;;;5064984;28;19920;-65
2023/05/08 11:40:46;;;;;;;;;;;13.20;57.10;;;;;;5070469;28;20285;-65
2023/05/08 11:43:40;;;;;;;;;;;13.20;56.80;;;;;;5069943;28;20292;-64
2023/05/08 11:46:13;;;;;;;;;;;13.10;57.20;;;;;;5052415;28;19958;-65
2023/05/08 11:48:40;;;;;;;;;;;13.10;57.40;;;;;;5069792;28;19947;-66
2023/05/08 11:51:06;;;;;;;;;;;13.00;57.50;;;;;;5069731;28;19912;-66
2023/05/08 11:53:34;;;;;;;;;;;13.00;57.50;;;;;;5070358;28;19912;-66
2023/05/08 11:56:00;;;;;;;;;;;13.00;57.70;;;;;;5069147;28;19928;-65
2023/05/08 11:58:27;;;;;;;;;;;13.00;57.40;;;;;;5070968;28;20362;-65
2023/05/08 12:00:54;;;;;;;;;;;12.90;58.00;;;;;;5068254;28;19916;-65
2023/05/08 12:03:21;;;;;;;;;;;12.90;57.90;;;;;;5051798;28;19967;-65
2023/05/08 12:05:48;;;;;;;;;;;12.80;57.90;;;;;;5055218;28;19948;-65
2023/05/08 12:08:15;;;;;;;;;;;12.80;58.30;;;;;;5058679;28;19924;-65
2023/05/08 12:10:51;;;;;;;;;;;12.80;58.20;;;;;;5083423;28;20373;-65
2023/05/08 12:13:28;;;;;;;;;;;12.80;58.30;;;;;;5086447;28;19912;-67
2023/05/08 12:15:55;;;;;;;;;;;12.80;58.30;;;;;;5088687;28;20267;-65
2023/05/08 12:18:22;;;;;;;;;;;12.70;58.30;;;;;;5073403;28;19916;-65
2023/05/08 12:20:52;;;;;;;;;;;12.70;58.70;;;;;;5090937;28;20425;-65
2023/05/08 12:23:19;;;;;;;;;;;12.70;58.70;;;;;;5077192;28;19920;-65
2023/05/08 12:25:46;;;;;;;;;;;12.70;58.80;;;;;;5081740;28;20361;-65
2023/05/08 12:28:13;;;;;;;;;;;12.70;58.70;;;;;;5091212;28;19919;-65
2023/05/08 12:30:40;;;;;;;;;;;12.70;58.90;;;;;;5070153;28;20046;-65
2023/05/08 12:33:06;;;;;;;;;;;12.70;59.30;;;;;;5060897;28;19954;-65
2023/05/08 12:35:33;;;;;;;;;;;12.60;60.10;;;;;;5044940;28;20297;-65
2023/05/08 12:38:03;;;;;;;;;;;12.60;59.70;;;;;;5070228;28;19920;-65
2023/05/08 12:40:30;;;;;;;;;;;12.60;59.80;;;;;;5088206;28;19920;-65
2023/05/08 12:42:59;;;;;;;;;;;12.50;59.80;;;;;;5084128;28;19912;-65
2023/05/08 12:45:27;;;;;;;;;;;12.50;59.80;;;;;;5073064;28;19912;-65
2023/05/08 12:47:55;;;;;;;;;;;12.50;60.10;;;;;;5090914;28;20405;-65
2023/05/08 12:50:24;;;;;;;;;;;12.50;60.40;;;;;;5088350;28;19923;-64
2023/05/08 12:52:51;;;;;;;;;;;12.50;60.30;;;;;;5077030;28;19920;-65
2023/05/08 12:55:24;;;;;;;;;;;12.50;60.50;;;;;;5082372;28;20355;-64
2023/05/08 12:57:58;;;;;;;;;;;12.50;60.70;;;;;;5083207;28;20346;-64
2023/05/08 13:00:25;;;;;;;;;;;12.50;60.50;;;;;;5078243;28;19923;-64
2023/05/08 13:02:52;;;;;;;;;;;12.50;61.00;;;;;;5077315;28;19956;-65
2023/05/08 13:05:20;;;;;;;;;;;12.50;60.60;;;;;;5075894;28;20386;-65
2023/05/08 13:07:46;;;;;;;;;;;12.50;61.40;;;;;;5080173;28;19912;-65
2023/05/08 13:10:13;;;;;;;;;;;12.40;60.90;;;;;;5053141;28;20274;-65
2023/05/08 13:12:40;;;;;;;;;;;12.50;60.70;;;;;;5092740;28;19999;-65
2023/05/08 13:15:07;;;;;;;;;;;12.50;60.60;;;;;;5092271;28;19912;-65
2023/05/08 13:17:34;;;;;;;;;;;12.50;60.80;;;;;;5094148;28;19920;-65
2023/05/08 13:20:02;;;;;;;;;;;12.40;60.90;;;;;;5093353;28;21955;-65
2023/05/08 13:22:29;;;;;;;;;;;12.40;60.90;;;;;;5074478;28;19916;-65
2023/05/08 13:24:56;;;;;;;;;;;12.40;61.10;;;;;;5075129;28;19924;-65
2023/05/08 13:27:23;;;;;;;;;;;12.40;61.10;;;;;;5093554;28;19916;-65
2023/05/08 13:29:49;;;;;;;;;;;12.30;61.40;;;;;;5087126;28;19977;-65
2023/05/08 13:32:16;;;;;;;;;;;12.30;61.20;;;;;;5091213;28;20266;-65
2023/05/08 13:34:43;;;;;;;;;;;12.30;61.10;;;;;;5094133;28;19912;-65
2023/05/08 13:37:10;;;;;;;;;;;12.30;61.80;;;;;;5092664;28;19928;-64
2023/05/08 13:39:36;;;;;;;;;;;12.30;62.00;;;;;;5071922;28;20023;-65
2023/05/08 13:42:03;;;;;;;;;;;12.30;61.80;;;;;;5092007;28;19924;-65
2023/05/08 13:44:30;;;;;;;;;;;12.20;61.50;;;;;;5094419;28;19959;-65
2023/05/08 13:46:57;;;;;;;;;;;12.20;61.20;;;;;;5080781;28;19944;-67
2023/05/08 13:49:25;;;;;;;;;;;12.20;61.20;;;;;;5092236;28;19919;-65
2023/05/08 13:51:51;;;;;;;;;;;12.20;60.80;;;;;;5091173;28;19912;-65
2023/05/08 13:54:18;;;;;;;;;;;12.20;61.10;;;;;;5074521;28;19916;-65
2023/05/08 13:56:47;;;;;;;;;;;12.20;61.70;;;;;;5084771;28;19919;-65
2023/05/08 13:59:14;;;;;;;;;;;12.20;61.40;;;;;;5072796;28;19912;-65
2023/05/08 14:01:40;;;;;;;;;;;12.20;61.00;;;;;;5083457;28;20281;-65
2023/05/08 14:04:07;;;;;;;;;;;12.20;60.80;;;;;;5079654;28;19913;-66
2023/05/08 14:06:34;;;;;;;;;;;12.20;60.90;;;;;;5074578;28;20363;-65
2023/05/08 14:09:00;;;;;;;;;;;12.20;61.10;;;;;;5087024;28;19920;-67
2023/05/08 14:11:28;;;;;;;;;;;12.20;60.90;;;;;;5081626;28;19958;-65
2023/05/08 14:13:55;;;;;;;;;;;12.20;60.80;;;;;;5082120;28;19951;-65
2023/05/08 14:16:22;;;;;;;;;;;12.20;60.70;;;;;;5093420;28;19912;-64
2023/05/08 14:18:48;;;;;;;;;;;12.20;60.50;;;;;;5087948;28;19919;-65
2023/05/08 14:21:15;;;;;;;;;;;12.20;60.70;;;;;;5080408;28;19916;-65
2023/05/08 14:23:43;;;;;;;;;;;12.20;60.50;;;;;;5094219;28;19908;-65
2023/05/08 14:26:10;;;;;;;;;;;12.20;61.10;;;;;;5092023;28;19912;-65
2023/05/08 14:28:36;;;;;;;;;;;12.20;61.00;;;;;;5092950;28;19908;-65
2023/05/08 14:31:03;;;;;;;;;;;12.20;61.50;;;;;;5086378;28;19958;-65
2023/05/08 14:33:30;;;;;;;;;;;12.20;61.50;;;;;;5093603;28;19916;-65
2023/05/08 14:35:56;;;;;;;;;;;12.20;61.70;;;;;;5092190;28;20343;-65
2023/05/08 14:38:23;;;;;;;;;;;12.10;61.80;;;;;;5086913;28;19999;-65
2023/05/08 14:40:50;;;;;;;;;;;12.10;62.10;;;;;;5092937;28;19993;-65
2023/05/08 14:43:17;;;;;;;;;;;12.10;62.20;;;;;;5077511;28;19965;-65
2023/05/08 14:45:44;;;;;;;;;;;12.00;62.40;;;;;;5055816;28;20930;-65
2023/05/08 14:48:10;;;;;;;;;;;12.00;62.50;;;;;;5073554;28;19912;-65
2023/05/08 14:50:37;;;;;;;;;;;12.00;62.40;;;;;;5081780;28;19912;-64
2023/05/08 14:53:04;;;;;;;;;;;12.00;62.20;;;;;;5075686;28;19922;-65
2023/05/08 14:55:31;;;;;;;;;;;12.00;62.70;;;;;;5088039;28;19958;-65
2023/05/08 14:57:57;;;;;;;;;;;12.00;62.10;;;;;;5092746;28;19932;-65
2023/05/08 15:00:24;;;;;;;;;;;12.00;62.40;;;;;;5092836;28;19916;-65
2023/05/08 15:02:51;;;;;;;;;;;12.00;62.30;;;;;;5093819;28;19962;-65
2023/05/08 15:05:18;;;;;;;;;;;12.00;62.00;;;;;;5093429;28;20264;-65
2023/05/08 15:07:44;;;;;;;;;;;12.00;62.90;;;;;;5073014;28;19919;-65
2023/05/08 15:10:11;;;;;;;;;;;12.00;62.10;;;;;;5069901;28;20347;-65
2023/05/08 15:12:38;;;;;;;;;;;12.00;62.10;;;;;;5073848;28;20003;-65
2023/05/08 15:15:05;;;;;;;;;;;12.00;62.00;;;;;;5073369;28;19908;-65
2023/05/08 15:17:35;;;;;;;;;;;12.00;61.90;;;;;;5075377;28;19974;-65
2023/05/08 15:20:02;;;;;;;;;;;12.00;62.10;;;;;;5087979;28;19958;-65
2023/05/08 15:22:29;;;;;;;;;;;12.00;62.00;;;;;;5073335;28;20411;-65
2023/05/08 15:25:00;;;;;;;;;;;12.00;62.00;;;;;;5093279;28;19908;-65
2023/05/08 15:27:30;;;;;;;;;;;11.90;62.00;;;;;;5092273;28;20267;-65
2023/05/08 15:29:57;;;;;;;;;;;12.00;62.10;;;;;;5084440;28;19920;-65
2023/05/08 15:32:24;;;;;;;;;;;11.90;62.10;;;;;;5072814;28;19959;-65
2023/05/08 15:34:50;;;;;;;;;;;11.90;62.10;;;;;;5072226;28;19939;-65
2023/05/08 15:37:17;;;;;;;;;;;11.90;61.90;;;;;;5083124;28;19924;-65
2023/05/08 15:39:44;;;;;;;;;;;11.90;62.00;;;;;;5074950;28;19919;-66
2023/05/08 15:42:11;;;;;;;;;;;11.90;61.90;;;;;;5079534;28;19912;-66
2023/05/08 15:44:37;;;;;;;;;;;11.80;62.10;;;;;;5092682;28;20277;-65
2023/05/08 15:47:04;;;;;;;;;;;11.90;62.60;;;;;;5091417;28;19912;-65
2023/05/08 15:49:31;;;;;;;;;;;11.90;62.40;;;;;;5086767;28;19913;-65
2023/05/08 15:51:57;;;;;;;;;;;11.80;62.30;;;;;;5083787;28;19919;-65
2023/05/08 15:54:24;;;;;;;;;;;11.90;62.00;;;;;;5077218;28;19919;-65
2023/05/08 15:56:51;;;;;;;;;;;11.80;62.50;;;;;;5082128;28;19916;-65
2023/05/08 15:59:21;;;;;;;;;;;11.80;62.90;;;;;;5090116;28;20635;-65
2023/05/08 16:01:47;;;;;;;;;;;11.80;63.30;;;;;;5077582;28;19920;-65
2023/05/08 16:04:14;;;;;;;;;;;11.70;64.80;;;;;;5083139;28;20265;-65
2023/05/08 16:06:41;;;;;;;;;;;11.70;64.10;;;;;;5080709;28;19958;-65
2023/05/08 16:09:08;;;;;;;;;;;11.70;64.90;;;;;;5091265;28;19927;-66
2023/05/08 16:11:34;;;;;;;;;;;11.70;64.10;;;;;;5091474;28;20003;-65
2023/05/08 16:14:01;;;;;;;;;;;11.70;64.10;;;;;;5091299;28;20003;-65
2023/05/08 16:16:28;;;;;;;;;;;11.60;64.60;;;;;;5076661;28;19927;-65
2023/05/08 16:18:54;;;;;;;;;;;11.60;63.70;;;;;;5086006;28;19920;-65
2023/05/08 16:21:21;;;;;;;;;;;11.60;64.10;;;;;;5074519;28;19919;-66
2023/05/08 16:23:48;;;;;;;;;;;11.70;63.90;;;;;;5091787;28;19912;-65
2023/05/08 16:26:15;;;;;;;;;;;11.70;63.30;;;;;;5092176;28;20342;-65
2023/05/08 16:28:42;;;;;;;;;;;11.70;63.30;;;;;;5077026;28;19920;-65
2023/05/08 16:31:10;;;;;;;;;;;11.70;63.20;;;;;;5091760;28;19916;-65
2023/05/08 16:33:37;;;;;;;;;;;11.70;62.90;;;;;;5091802;28;19915;-65
2023/05/08 16:36:04;;;;;;;;;;;11.70;62.70;;;;;;5091868;28;19908;-65
2023/05/08 16:38:31;;;;;;;;;;;11.70;62.90;;;;;;5091136;28;19931;-65
2023/05/08 16:41:01;;;;;;;;;;;11.70;62.70;;;;;;5090423;28;19913;-65
2023/05/08 16:43:28;;;;;;;;;;;11.70;62.80;;;;;;5095808;28;19993;-65
2023/05/08 16:45:55;;;;;;;;;;;11.70;62.50;;;;;;5095588;28;19909;-65
2023/05/08 16:48:21;;;;;;;;;;;11.70;63.30;;;;;;5094548;28;19912;-65